createdAt,value
2018-02-24T00:00:37.014Z,62.94
2018-02-24T00:01:37.021Z,62.88
2018-02-24T00:02:36.750Z,62.59
2018-02-24T00:03:36.755Z,62.85
2018-02-24T00:04:37.046Z,62.78
2018-02-24T00:05:37.114Z,62.69
2018-02-24T00:06:37.061Z,62.69
2018-02-24T00:07:37.068Z,62.88
2018-02-24T00:08:36.795Z,62.97
2018-02-24T00:09:37.084Z,62.78
2018-02-24T00:10:37.148Z,63.04
2018-02-24T00:11:37.102Z,62.69
2018-02-24T00:12:37.120Z,62.69
2018-02-24T00:13:36.837Z,62.97
2018-02-24T00:14:37.258Z,62.66
2018-02-24T00:15:37.186Z,62.59
2018-02-24T00:16:37.152Z,62.59
2018-02-24T00:17:37.154Z,62.28
2018-02-24T00:18:36.877Z,62.31
2018-02-24T00:19:37.172Z,62.66
2018-02-24T00:20:37.231Z,62.37
2018-02-24T00:21:36.906Z,62.66
2018-02-24T00:22:37.193Z,62.69
2018-02-24T00:23:37.211Z,62.59
2018-02-24T00:24:36.926Z,62.47
2018-02-24T00:25:37.227Z,62.69
2018-02-24T00:26:37.224Z,62.5
2018-02-24T00:27:36.953Z,62.47
2018-02-24T00:28:37.244Z,62.12
2018-02-24T00:29:37.249Z,62.28
2018-02-24T00:30:36.979Z,62.28
2018-02-24T00:31:37.280Z,62.18
2018-02-24T00:32:37.283Z,62.28
2018-02-24T00:33:36.999Z,62.28
2018-02-24T00:34:37.010Z,62.18
2018-02-24T00:35:37.400Z,62.28
2018-02-24T00:36:37.308Z,62.47
2018-02-24T00:37:37.315Z,62.28
2018-02-24T00:38:37.327Z,61.9
2018-02-24T00:39:37.051Z,62.09
2018-02-24T00:40:37.343Z,61.8
2018-02-24T00:41:37.067Z,61.99
2018-02-24T00:42:37.076Z,62.28
2018-02-24T00:43:37.362Z,61.99
2018-02-24T00:44:37.089Z,61.9
2018-02-24T00:45:37.382Z,61.8
2018-02-24T00:46:37.393Z,61.9
2018-02-24T00:47:37.114Z,61.9
2018-02-24T00:48:37.410Z,61.8
2018-02-24T00:49:37.137Z,62.09
2018-02-24T00:50:37.191Z,62.18
2018-02-24T00:51:37.430Z,62.18
2018-02-24T00:52:37.439Z,62.18
2018-02-24T00:53:37.447Z,62.28
2018-02-24T00:54:37.457Z,62.28
2018-02-24T00:55:37.459Z,62.47
2018-02-24T00:56:37.469Z,62.66
2018-02-24T00:57:37.480Z,62.85
2018-02-24T00:58:37.491Z,62.85
2018-02-24T00:59:37.496Z,62.75
2018-02-24T01:00:37.510Z,63.23
2018-02-24T01:01:37.512Z,62.85
2018-02-24T01:02:37.519Z,62.66
2018-02-24T01:03:37.529Z,62.85
2018-02-24T01:04:37.538Z,62.94
2018-02-24T01:05:37.619Z,62.56
2018-02-24T01:06:37.550Z,62.37
2018-02-24T01:07:37.277Z,62.47
2018-02-24T01:08:37.572Z,62.37
2018-02-24T01:09:37.577Z,62.37
2018-02-24T01:10:37.584Z,62.37
2018-02-24T01:11:37.594Z,62.28
2018-02-24T01:12:37.602Z,62.37
2018-02-24T01:13:37.610Z,61.99
2018-02-24T01:14:37.335Z,62.18
2018-02-24T01:15:37.343Z,62.18
2018-02-24T01:16:37.351Z,61.99
2018-02-24T01:17:37.358Z,62.37
2018-02-24T01:18:37.365Z,62.18
2018-02-24T01:19:37.377Z,62.18
2018-02-24T01:20:37.673Z,62.18
2018-02-24T01:21:37.392Z,62.18
2018-02-24T01:22:37.689Z,62.09
2018-02-24T01:23:37.408Z,62.28
2018-02-24T01:24:37.414Z,62.37
2018-02-24T01:25:37.424Z,62.56
2018-02-24T01:26:37.718Z,62.75
2018-02-24T01:27:37.437Z,62.85
2018-02-24T01:28:37.731Z,62.66
2018-02-24T01:29:37.457Z,63.23
2018-02-24T01:30:37.463Z,63.42
2018-02-24T01:31:37.473Z,63.32
2018-02-24T01:32:37.482Z,63.42
2018-02-24T01:33:37.488Z,62.66
2018-02-24T01:34:37.781Z,62.85
2018-02-24T01:35:37.503Z,62.56
2018-02-24T01:36:37.797Z,62.94
2018-02-24T01:37:37.520Z,62.56
2018-02-24T01:38:37.525Z,62.94
2018-02-24T01:39:37.818Z,62.85
2018-02-24T01:40:37.543Z,63.23
2018-02-24T01:41:37.836Z,63.32
2018-02-24T01:42:37.840Z,63.42
2018-02-24T01:43:37.571Z,62.94
2018-02-24T01:44:37.574Z,63.13
2018-02-24T01:45:37.867Z,63.23
2018-02-24T01:46:37.873Z,63.13
2018-02-24T01:47:37.598Z,63.13
2018-02-24T01:48:37.609Z,63.32
2018-02-24T01:49:37.617Z,63.32
2018-02-24T01:50:37.624Z,63.32
2018-02-24T01:51:37.631Z,63.42
2018-02-24T01:52:37.922Z,63.42
2018-02-24T01:53:37.649Z,63.23
2018-02-24T01:54:37.939Z,63.04
2018-02-24T01:55:37.667Z,63.04
2018-02-24T01:56:37.672Z,62.66
2018-02-24T01:57:37.969Z,62.66
2018-02-24T01:58:37.972Z,62.66
2018-02-24T01:59:37.698Z,62.66
2018-02-24T02:00:37.987Z,62.85
2018-02-24T02:01:37.713Z,62.75
2018-02-24T02:02:37.721Z,62.85
2018-02-24T02:03:38.011Z,63.23
2018-02-24T02:04:38.019Z,62.75
2018-02-24T02:05:38.031Z,62.75
2018-02-24T02:06:37.756Z,62.66
2018-02-24T02:07:37.761Z,62.75
2018-02-24T02:08:38.051Z,62.66
2018-02-24T02:09:37.781Z,62.66
2018-02-24T02:10:38.070Z,62.56
2018-02-24T02:11:37.791Z,63.23
2018-02-24T02:12:38.089Z,63.13
2018-02-24T02:13:38.090Z,63.13
2018-02-24T02:14:38.098Z,62.94
2018-02-24T02:15:38.107Z,62.56
2018-02-24T02:16:38.121Z,62.66
2018-02-24T02:17:38.124Z,62.56
2018-02-24T02:18:38.129Z,62.56
2018-02-24T02:19:38.136Z,62.66
2018-02-24T02:20:38.146Z,62.56
2018-02-24T02:21:37.872Z,62.66
2018-02-24T02:22:38.170Z,62.56
2018-02-24T02:23:37.893Z,62.56
2018-02-24T02:24:38.179Z,62.56
2018-02-24T02:25:38.192Z,62.56
2018-02-24T02:26:38.196Z,62.37
2018-02-24T02:27:37.919Z,62.66
2018-02-24T02:28:38.209Z,62.85
2018-02-24T02:29:37.935Z,63.32
2018-02-24T02:30:38.233Z,63.23
2018-02-24T02:31:38.239Z,63.42
2018-02-24T02:32:38.247Z,62.66
2018-02-24T02:33:38.250Z,62.56
2018-02-24T02:34:38.256Z,62.75
2018-02-24T02:35:37.984Z,63.13
2018-02-24T02:36:38.277Z,63.32
2018-02-24T02:37:38.282Z,63.13
2018-02-24T02:38:38.290Z,63.23
2018-02-24T02:39:38.299Z,62.75
2018-02-24T02:40:38.028Z,62.56
2018-02-24T02:41:38.315Z,62.75
2018-02-24T02:42:38.038Z,62.94
2018-02-24T02:43:38.332Z,62.94
2018-02-24T02:44:38.336Z,62.94
2018-02-24T02:45:38.062Z,62.94
2018-02-24T02:46:38.355Z,63.04
2018-02-24T02:47:38.082Z,62.85
2018-02-24T02:48:38.370Z,63.32
2018-02-24T02:49:38.375Z,63.23
2018-02-24T02:50:38.383Z,62.94
2018-02-24T02:51:38.401Z,62.94
2018-02-24T02:52:38.127Z,62.94
2018-02-24T02:53:38.126Z,63.13
2018-02-24T02:54:38.135Z,63.32
2018-02-24T02:55:38.428Z,63.32
2018-02-24T02:56:38.153Z,63.04
2018-02-24T02:57:38.156Z,63.13
2018-02-24T02:58:38.450Z,63.04
2018-02-24T02:59:38.171Z,63.32
2018-02-24T03:00:38.463Z,63.42
2018-02-24T03:01:38.472Z,63.23
2018-02-24T03:02:38.482Z,63.23
2018-02-24T03:03:38.204Z,63.23
2018-02-24T03:04:38.498Z,63.04
2018-02-24T03:05:38.505Z,63.23
2018-02-24T03:06:38.511Z,63.13
2018-02-24T03:07:38.529Z,63.32
2018-02-24T03:08:38.243Z,63.42
2018-02-24T03:09:38.533Z,63.32
2018-02-24T03:10:38.541Z,63.42
2018-02-24T03:11:38.270Z,63.32
2018-02-24T03:12:38.559Z,63.32
2018-02-24T03:13:38.288Z,63.04
2018-02-24T03:14:38.290Z,63.04
2018-02-24T03:15:38.582Z,63.42
2018-02-24T03:16:38.588Z,63.51
2018-02-24T03:17:38.317Z,63.6
2018-02-24T03:18:38.601Z,63.32
2018-02-24T03:19:38.340Z,62.94
2018-02-24T03:20:38.619Z,63.23
2018-02-24T03:21:38.626Z,63.23
2018-02-24T03:22:38.638Z,63.32
2018-02-24T03:23:38.359Z,63.23
2018-02-24T03:24:38.650Z,63.42
2018-02-24T03:25:38.657Z,63.42
2018-02-24T03:26:38.663Z,63.13
2018-02-24T03:27:38.390Z,63.6
2018-02-24T03:28:38.678Z,63.6
2018-02-24T03:29:38.404Z,63.6
2018-02-24T03:30:38.419Z,63.6
2018-02-24T03:31:38.761Z,63.6
2018-02-24T03:32:38.715Z,63.6
2018-02-24T03:33:38.725Z,63.6
2018-02-24T03:34:38.737Z,63.6
2018-02-24T03:35:38.737Z,63.6
2018-02-24T03:36:38.510Z,63.7
2018-02-24T03:37:38.466Z,63.6
2018-02-24T03:38:38.769Z,63.7
2018-02-24T03:39:38.484Z,63.42
2018-02-24T03:40:38.778Z,63.51
2018-02-24T03:41:38.506Z,63.7
2018-02-24T03:42:38.508Z,63.7
2018-02-24T03:43:38.516Z,63.7
2018-02-24T03:44:38.806Z,63.7
2018-02-24T03:45:38.814Z,63.79
2018-02-24T03:46:38.819Z,63.7
2018-02-24T03:47:38.546Z,63.89
2018-02-24T03:48:38.838Z,63.32
2018-02-24T03:49:38.849Z,63.6
2018-02-24T03:50:38.856Z,63.6
2018-02-24T03:51:38.861Z,63.79
2018-02-24T03:52:38.867Z,63.7
2018-02-24T03:53:38.876Z,63.32
2018-02-24T03:54:38.884Z,63.79
2018-02-24T03:55:38.608Z,63.79
2018-02-24T03:56:38.617Z,64.07
2018-02-24T03:57:38.624Z,63.7
2018-02-24T03:58:38.916Z,63.89
2018-02-24T03:59:38.924Z,63.89
2018-02-24T04:00:38.935Z,63.6
2018-02-24T04:01:38.977Z,64.17
2018-02-24T04:02:38.660Z,64.36
2018-02-24T04:03:38.674Z,64.36
2018-02-24T04:04:38.674Z,64.36
2018-02-24T04:05:38.690Z,64.26
2018-02-24T04:06:38.975Z,63.98
2018-02-24T04:07:38.986Z,64.17
2018-02-24T04:08:38.707Z,63.79
2018-02-24T04:09:38.996Z,64.26
2018-02-24T04:10:39.011Z,63.98
2018-02-24T04:11:39.019Z,63.79
2018-02-24T04:12:39.023Z,64.07
2018-02-24T04:13:39.031Z,64.36
2018-02-24T04:14:39.038Z,64.17
2018-02-24T04:15:38.768Z,64.17
2018-02-24T04:16:39.054Z,64.26
2018-02-24T04:17:38.777Z,64.07
2018-02-24T04:18:39.070Z,64.26
2018-02-24T04:19:39.076Z,63.7
2018-02-24T04:20:39.086Z,63.79
2018-02-24T04:21:39.100Z,64.07
2018-02-24T04:22:38.817Z,63.7
2018-02-24T04:23:38.822Z,64.17
2018-02-24T04:24:39.115Z,63.89
2018-02-24T04:25:39.124Z,63.51
2018-02-24T04:26:38.847Z,63.79
2018-02-24T04:27:38.855Z,63.79
2018-02-24T04:28:38.861Z,63.6
2018-02-24T04:29:39.151Z,63.51
2018-02-24T04:30:39.158Z,63.7
2018-02-24T04:31:39.164Z,63.7
2018-02-24T04:32:39.178Z,64.07
2018-02-24T04:33:38.902Z,63.98
2018-02-24T04:34:38.908Z,63.89
2018-02-24T04:35:39.198Z,63.98
2018-02-24T04:36:39.206Z,63.6
2018-02-24T04:37:39.218Z,63.89
2018-02-24T04:38:38.938Z,63.89
2018-02-24T04:39:39.236Z,63.7
2018-02-24T04:40:39.237Z,63.79
2018-02-24T04:41:38.961Z,63.7
2018-02-24T04:42:39.254Z,64.36
2018-02-24T04:43:39.258Z,64.14
2018-02-24T04:44:39.266Z,64.26
2018-02-24T04:45:39.316Z,64.17
2018-02-24T04:46:38.999Z,64.26
2018-02-24T04:47:39.291Z,64.26
2018-02-24T04:48:39.296Z,64.26
2018-02-24T04:49:39.025Z,64.07
2018-02-24T04:50:39.315Z,63.89
2018-02-24T04:51:39.036Z,64.26
2018-02-24T04:52:39.054Z,64.42
2018-02-24T04:53:39.338Z,64.55
2018-02-24T04:54:39.344Z,64.64
2018-02-24T04:55:39.351Z,64.83
2018-02-24T04:56:39.356Z,64.74
2018-02-24T04:57:39.084Z,65.02
2018-02-24T04:58:39.091Z,64.93
2018-02-24T04:59:39.099Z,64.55
2018-02-24T05:00:39.391Z,64.71
2018-02-24T05:01:39.398Z,64.83
2018-02-24T05:02:39.400Z,64.55
2018-02-24T05:03:39.130Z,64.55
2018-02-24T05:04:39.152Z,64.74
2018-02-24T05:05:39.441Z,64.9
2018-02-24T05:06:39.155Z,64.74
2018-02-24T05:07:39.444Z,64.93
2018-02-24T05:08:39.451Z,64.64
2018-02-24T05:09:39.176Z,64.64
2018-02-24T05:10:39.187Z,64.64
2018-02-24T05:11:39.474Z,64.64
2018-02-24T05:12:39.197Z,64.55
2018-02-24T05:13:39.487Z,64.83
2018-02-24T05:14:39.498Z,65.21
2018-02-24T05:15:39.223Z,65.21
2018-02-24T05:16:39.513Z,65.18
2018-02-24T05:17:39.566Z,65.02
2018-02-24T05:18:39.532Z,64.83
2018-02-24T05:19:39.251Z,65.02
2018-02-24T05:20:39.257Z,65.02
2018-02-24T05:21:39.549Z,64.93
2018-02-24T05:22:39.561Z,65.09
2018-02-24T05:23:39.280Z,64.74
2018-02-24T05:24:39.570Z,64.74
2018-02-24T05:25:39.585Z,65.12
2018-02-24T05:26:39.306Z,64.93
2018-02-24T05:27:39.644Z,64.93
2018-02-24T05:28:39.319Z,65.78
2018-02-24T05:29:39.607Z,65.5
2018-02-24T05:30:39.618Z,65.31
2018-02-24T05:31:39.667Z,65.28
2018-02-24T05:32:39.630Z,65.4
2018-02-24T05:33:39.360Z,65.59
2018-02-24T05:34:39.649Z,65.5
2018-02-24T05:35:39.656Z,65.4
2018-02-24T05:36:39.663Z,65.4
2018-02-24T05:37:39.672Z,65.37
2018-02-24T05:38:39.683Z,65.18
2018-02-24T05:39:39.406Z,65.21
2018-02-24T05:40:39.412Z,65.31
2018-02-24T05:41:39.417Z,65.21
2018-02-24T05:42:39.759Z,65.12
2018-02-24T05:43:39.436Z,65.09
2018-02-24T05:44:39.727Z,65.18
2018-02-24T05:45:39.733Z,65.37
2018-02-24T05:46:39.740Z,65.21
2018-02-24T05:47:39.515Z,65.5
2018-02-24T05:48:39.751Z,65.37
2018-02-24T05:49:39.764Z,65.21
2018-02-24T05:50:39.770Z,65.47
2018-02-24T05:51:39.776Z,65.47
2018-02-24T05:52:39.784Z,65.31
2018-02-24T05:53:39.527Z,65.59
2018-02-24T05:54:39.800Z,65.59
2018-02-24T05:55:39.527Z,65.59
2018-02-24T05:56:39.817Z,65.69
2018-02-24T05:57:39.893Z,65.56
2018-02-24T05:58:39.829Z,65.37
2018-02-24T05:59:39.553Z,65.56
2018-02-24T06:00:39.845Z,65.37
2018-02-24T06:01:39.853Z,65.4
2018-02-24T06:02:39.856Z,65.69
2018-02-24T06:03:39.587Z,65.78
2018-02-24T06:04:39.596Z,65.69
2018-02-24T06:05:39.598Z,65.5
2018-02-24T06:06:39.612Z,65.75
2018-02-24T06:07:39.965Z,65.66
2018-02-24T06:08:39.621Z,65.66
2018-02-24T06:09:39.629Z,65.5
2018-02-24T06:10:39.920Z,65.66
2018-02-24T06:11:39.924Z,65.69
2018-02-24T06:12:39.653Z,65.59
2018-02-24T06:13:39.942Z,65.69
2018-02-24T06:14:39.950Z,65.66
2018-02-24T06:15:39.960Z,65.78
2018-02-24T06:16:39.966Z,65.78
2018-02-24T06:17:40.022Z,65.75
2018-02-24T06:18:39.981Z,65.78
2018-02-24T06:19:39.783Z,65.75
2018-02-24T06:20:39.993Z,65.66
2018-02-24T06:21:40.006Z,65.66
2018-02-24T06:22:39.732Z,65.94
2018-02-24T06:23:40.022Z,65.78
2018-02-24T06:24:40.026Z,65.66
2018-02-24T06:25:40.033Z,65.69
2018-02-24T06:26:40.043Z,65.69
2018-02-24T06:27:39.766Z,65.37
2018-02-24T06:28:40.061Z,65.59
2018-02-24T06:29:40.065Z,65.69
2018-02-24T06:30:40.071Z,65.59
2018-02-24T06:31:40.076Z,65.69
2018-02-24T06:32:39.805Z,65.84
2018-02-24T06:33:40.094Z,66.44
2018-02-24T06:34:40.101Z,66.25
2018-02-24T06:35:39.825Z,66.16
2018-02-24T06:36:39.831Z,66.06
2018-02-24T06:37:40.120Z,66.25
2018-02-24T06:38:40.133Z,66.16
2018-02-24T06:39:39.855Z,66.35
2018-02-24T06:40:40.165Z,66.25
2018-02-24T06:41:40.161Z,66.44
2018-02-24T06:42:40.221Z,66.16
2018-02-24T06:43:40.177Z,66.25
2018-02-24T06:44:39.898Z,66.35
2018-02-24T06:45:40.185Z,66.44
2018-02-24T06:46:40.226Z,65.97
2018-02-24T06:47:39.918Z,66.44
2018-02-24T06:48:40.208Z,66.06
2018-02-24T06:49:39.934Z,66.06
2018-02-24T06:50:40.228Z,65.88
2018-02-24T06:51:40.253Z,66.35
2018-02-24T06:52:39.953Z,66.16
2018-02-24T06:53:40.245Z,65.78
2018-02-24T06:54:40.298Z,66.44
2018-02-24T06:55:40.262Z,65.78
2018-02-24T06:56:39.983Z,66.16
2018-02-24T06:57:40.042Z,66.06
2018-02-24T06:58:39.999Z,66.06
2018-02-24T06:59:40.010Z,66.44
2018-02-24T07:00:40.295Z,66.44
2018-02-24T07:01:40.025Z,66.06
2018-02-24T07:02:40.368Z,65.88
2018-02-24T07:03:40.323Z,66.16
2018-02-24T07:04:40.327Z,66.35
2018-02-24T07:05:40.066Z,66.06
2018-02-24T07:06:40.349Z,66.25
2018-02-24T07:07:40.353Z,66.06
2018-02-24T07:08:40.367Z,66.44
2018-02-24T07:09:40.366Z,65.88
2018-02-24T07:10:40.092Z,65.97
2018-02-24T07:11:40.377Z,66.44
2018-02-24T07:12:40.391Z,66.25
2018-02-24T07:13:40.113Z,66.16
2018-02-24T07:14:40.409Z,66.16
2018-02-24T07:15:40.414Z,66.44
2018-02-24T07:16:40.135Z,66.06
2018-02-24T07:17:40.149Z,66.06
2018-02-24T07:18:40.431Z,65.88
2018-02-24T07:19:40.163Z,66.06
2018-02-24T07:20:40.171Z,66.35
2018-02-24T07:21:40.459Z,66.25
2018-02-24T07:22:40.465Z,66.25
2018-02-24T07:23:40.474Z,66.16
2018-02-24T07:24:40.488Z,66.35
2018-02-24T07:25:40.490Z,66.16
2018-02-24T07:26:40.511Z,66.06
2018-02-24T07:27:40.528Z,66.06
2018-02-24T07:28:40.518Z,66.35
2018-02-24T07:29:40.237Z,65.88
2018-02-24T07:30:40.528Z,66.16
2018-02-24T07:31:40.548Z,65.59
2018-02-24T07:32:40.548Z,65.59
2018-02-24T07:33:40.268Z,65.88
2018-02-24T07:34:40.651Z,65.88
2018-02-24T07:35:40.566Z,65.4
2018-02-24T07:36:40.293Z,65.69
2018-02-24T07:37:40.584Z,65.63
2018-02-24T07:38:40.588Z,65.63
2018-02-24T07:39:40.597Z,65.44
2018-02-24T07:40:40.606Z,65.34
2018-02-24T07:41:40.615Z,65.72
2018-02-24T07:42:40.339Z,65.63
2018-02-24T07:43:40.633Z,65.25
2018-02-24T07:44:40.354Z,65.44
2018-02-24T07:45:40.643Z,65.63
2018-02-24T07:46:40.650Z,65.25
2018-02-24T07:47:40.657Z,65.34
2018-02-24T07:48:40.670Z,65.34
2018-02-24T07:49:40.410Z,65.81
2018-02-24T07:50:40.403Z,65.72
2018-02-24T07:51:40.704Z,65.15
2018-02-24T07:52:40.734Z,65.63
2018-02-24T07:53:40.425Z,65.53
2018-02-24T07:54:40.434Z,65.25
2018-02-24T07:55:40.726Z,65.25
2018-02-24T07:56:40.737Z,65.25
2018-02-24T07:57:40.745Z,65.53
2018-02-24T07:58:40.770Z,65.44
2018-02-24T07:59:40.473Z,65.34
2018-02-24T08:00:40.482Z,65.53
2018-02-24T08:01:40.491Z,65.25
2018-02-24T08:02:40.499Z,65.53
2018-02-24T08:03:40.793Z,65.25
2018-02-24T08:04:40.798Z,65.25
2018-02-24T08:05:40.814Z,65.25
2018-02-24T08:06:40.812Z,65.44
2018-02-24T08:07:40.821Z,65.15
2018-02-24T08:08:40.832Z,65.06
2018-02-24T08:09:40.569Z,64.96
2018-02-24T08:10:40.846Z,65.15
2018-02-24T08:11:40.572Z,65.25
2018-02-24T08:12:40.863Z,65.34
2018-02-24T08:13:40.589Z,65.25
2018-02-24T08:14:40.880Z,65.06
2018-02-24T08:15:40.886Z,65.15
2018-02-24T08:16:40.899Z,65.15
2018-02-24T08:17:40.911Z,65.06
2018-02-24T08:18:40.914Z,65.06
2018-02-24T08:19:40.938Z,64.77
2018-02-24T08:20:40.926Z,64.61
2018-02-24T08:21:40.940Z,64.39
2018-02-24T08:22:40.664Z,64.3
2018-02-24T08:23:40.963Z,64.3
2018-02-24T08:24:40.697Z,64.23
2018-02-24T08:25:40.687Z,64.33
2018-02-24T08:26:40.985Z,64.14
2018-02-24T08:27:40.994Z,63.76
2018-02-24T08:28:40.995Z,63.76
2018-02-24T08:29:41.010Z,63.1
2018-02-24T08:30:41.014Z,63.48
2018-02-24T08:31:41.024Z,63.2
2018-02-24T08:32:40.747Z,63.39
2018-02-24T08:33:41.033Z,63.01
2018-02-24T08:34:40.763Z,62.34
2018-02-24T08:35:41.054Z,62.53
2018-02-24T08:36:40.778Z,62.43
2018-02-24T08:37:40.787Z,62.72
2018-02-24T08:38:41.075Z,63.01
2018-02-24T08:39:41.084Z,62.72
2018-02-24T08:40:41.095Z,62.72
2018-02-24T08:41:40.819Z,62.53
2018-02-24T08:42:41.113Z,62.24
2018-02-24T08:43:41.124Z,62.43
2018-02-24T08:44:41.133Z,62.43
2018-02-24T08:45:40.870Z,62.62
2018-02-24T08:46:41.147Z,62.62
2018-02-24T08:47:41.158Z,63.01
2018-02-24T08:48:41.163Z,63.39
2018-02-24T08:49:41.175Z,63.1
2018-02-24T08:50:40.898Z,63.57
2018-02-24T08:51:40.908Z,63.2
2018-02-24T08:52:41.200Z,63.29
2018-02-24T08:53:40.923Z,64.04
2018-02-24T08:54:41.218Z,63.57
2018-02-24T08:55:41.223Z,63.67
2018-02-24T08:56:41.231Z,63.1
2018-02-24T08:57:41.242Z,63.2
2018-02-24T08:58:41.251Z,62.91
2018-02-24T08:59:40.977Z,62.37
2018-02-24T09:00:40.983Z,62.82
2018-02-24T09:01:40.991Z,62.66
2018-02-24T09:02:41.285Z,62.94
2018-02-24T09:03:41.292Z,62.75
2018-02-24T09:04:41.303Z,62.75
2018-02-24T09:05:41.310Z,62.85
2018-02-24T09:06:41.322Z,63.04
2018-02-24T09:07:41.328Z,63.32
2018-02-24T09:08:41.056Z,63.13
2018-02-24T09:09:41.349Z,62.85
2018-02-24T09:10:41.358Z,62.85
2018-02-24T09:11:41.083Z,62.66
2018-02-24T09:12:41.378Z,62.56
2018-02-24T09:13:41.385Z,62.47
2018-02-24T09:14:41.110Z,62.28
2018-02-24T09:15:41.399Z,62.47
2018-02-24T09:16:41.407Z,62.28
2018-02-24T09:17:41.505Z,62.56
2018-02-24T09:18:41.433Z,62.28
2018-02-24T09:19:41.153Z,61.24
2018-02-24T09:20:41.443Z,61.61
2018-02-24T09:21:41.454Z,61.14
2018-02-24T09:22:41.464Z,60.86
2018-02-24T09:23:41.479Z,60.95
2018-02-24T09:24:41.479Z,60.86
2018-02-24T09:25:41.498Z,60.76
2018-02-24T09:26:41.497Z,60.57
2018-02-24T09:27:41.511Z,60.76
2018-02-24T09:28:41.239Z,60.76
2018-02-24T09:29:41.529Z,60.67
2018-02-24T09:30:41.533Z,61.05
2018-02-24T09:31:41.545Z,60.86
2018-02-24T09:32:41.556Z,60.86
2018-02-24T09:33:41.576Z,60.57
2018-02-24T09:34:41.576Z,59.44
2018-02-24T09:35:41.578Z,58.96
2018-02-24T09:36:41.313Z,58.77
2018-02-24T09:37:41.605Z,58.48
2018-02-24T09:38:41.363Z,58.01
2018-02-24T09:39:41.618Z,57.54
2018-02-24T09:40:41.632Z,57.44
2018-02-24T09:41:41.639Z,57.57
2018-02-24T09:42:41.527Z,57.76
2018-02-24T09:43:41.664Z,57.66
2018-02-24T09:44:41.670Z,57.38
2018-02-24T09:45:41.688Z,57.47
2018-02-24T09:46:41.403Z,57.09
2018-02-24T09:47:41.697Z,57.19
2018-02-24T09:48:41.702Z,57.19
2018-02-24T09:49:41.426Z,57.19
2018-02-24T09:50:41.441Z,56.81
2018-02-24T09:51:41.768Z,56.62
2018-02-24T09:52:41.769Z,56.34
2018-02-24T09:53:41.539Z,56.34
2018-02-24T09:54:41.759Z,56.43
2018-02-24T09:55:41.485Z,56.34
2018-02-24T09:56:41.791Z,56.52
2018-02-24T09:57:41.502Z,56.81
2018-02-24T09:58:41.874Z,56.52
2018-02-24T09:59:41.544Z,56.71
2018-02-24T10:00:41.532Z,56.71
2018-02-24T10:01:41.822Z,57.19
2018-02-24T10:02:41.832Z,57.19
2018-02-24T10:03:41.843Z,57.38
2018-02-24T10:04:41.858Z,56.71
2018-02-24T10:05:41.862Z,56.17
2018-02-24T10:06:41.588Z,56.17
2018-02-24T10:07:41.599Z,55.51
2018-02-24T10:08:41.921Z,55.13
2018-02-24T10:09:41.901Z,55.13
2018-02-24T10:10:41.626Z,54.85
2018-02-24T10:11:41.690Z,54.66
2018-02-24T10:12:41.653Z,54.75
2018-02-24T10:13:41.992Z,54.46
2018-02-24T10:14:41.666Z,53.42
2018-02-24T10:15:41.677Z,53.8
2018-02-24T10:16:41.969Z,53.52
2018-02-24T10:17:41.981Z,53.45
2018-02-24T10:18:42.045Z,53.35
2018-02-24T10:19:41.716Z,53.73
2018-02-24T10:20:41.727Z,53.16
2018-02-24T10:21:42.024Z,52.87
2018-02-24T10:22:42.032Z,52.4
2018-02-24T10:23:42.044Z,52.31
2018-02-24T10:24:42.050Z,52.22
2018-02-24T10:25:42.059Z,52.12
2018-02-24T10:26:42.067Z,51.93
2018-02-24T10:27:41.797Z,51.74
2018-02-24T10:28:42.088Z,52.12
2018-02-24T10:29:42.105Z,52.22
2018-02-24T10:30:42.108Z,52.22
2018-02-24T10:31:42.121Z,52.02
2018-02-24T10:32:41.847Z,52.22
2018-02-24T10:33:42.139Z,51.83
2018-02-24T10:34:41.869Z,51.93
2018-02-24T10:35:42.159Z,51.93
2018-02-24T10:36:41.888Z,51.93
2018-02-24T10:37:42.186Z,51.64
2018-02-24T10:38:41.912Z,51.83
2018-02-24T10:39:41.920Z,51.83
2018-02-24T10:40:42.215Z,51.74
2018-02-24T10:41:42.224Z,51.93
2018-02-24T10:42:42.236Z,52.22
2018-02-24T10:43:42.249Z,52.12
2018-02-24T10:44:41.971Z,52.31
2018-02-24T10:45:42.267Z,52.31
2018-02-24T10:46:42.281Z,52.4
2018-02-24T10:47:42.285Z,52.31
2018-02-24T10:48:42.346Z,52.22
2018-02-24T10:49:42.306Z,52.22
2018-02-24T10:50:42.317Z,51.36
2018-02-24T10:51:42.332Z,51.07
2018-02-24T10:52:42.056Z,51.17
2018-02-24T10:53:42.067Z,51.36
2018-02-24T10:54:42.360Z,51.45
2018-02-24T10:55:42.369Z,51.83
2018-02-24T10:56:42.100Z,51.83
2018-02-24T10:57:42.391Z,51.55
2018-02-24T10:58:42.117Z,51.74
2018-02-24T10:59:42.413Z,51.93
2018-02-24T11:00:42.423Z,51.83
2018-02-24T11:01:42.432Z,51.83
2018-02-24T11:02:42.158Z,52.12
2018-02-24T11:03:42.503Z,51.74
2018-02-24T11:04:42.466Z,51.83
2018-02-24T11:05:42.478Z,51.83
2018-02-24T11:06:42.486Z,51.45
2018-02-24T11:07:42.500Z,51.17
2018-02-24T11:08:42.512Z,50.98
2018-02-24T11:09:42.515Z,50.51
2018-02-24T11:10:42.532Z,50.22
2018-02-24T11:11:42.549Z,49.65
2018-02-24T11:12:42.662Z,49.84
2018-02-24T11:13:42.613Z,49.27
2018-02-24T11:14:42.572Z,48.32
2018-02-24T11:15:42.584Z,48.7
2018-02-24T11:16:42.309Z,49.74
2018-02-24T11:17:42.323Z,49.08
2018-02-24T11:18:42.615Z,49.74
2018-02-24T11:19:42.628Z,50.03
2018-02-24T11:20:42.634Z,49.39
2018-02-24T11:21:42.650Z,48.06
2018-02-24T11:22:42.656Z,47.75
2018-02-24T11:23:42.682Z,47.39
2018-02-24T11:24:42.678Z,47.68
2018-02-24T11:25:42.691Z,47.49
2018-02-24T11:26:42.702Z,47.87
2018-02-24T11:27:42.719Z,48.63
2018-02-24T11:28:42.725Z,48.54
2018-02-24T11:29:42.453Z,48.54
2018-02-24T11:30:42.762Z,48.63
2018-02-24T11:31:42.761Z,48.16
2018-02-24T11:32:42.767Z,47.87
2018-02-24T11:33:42.776Z,47.58
2018-02-24T11:34:42.788Z,47.77
2018-02-24T11:35:42.801Z,47.68
2018-02-24T11:36:42.809Z,47.87
2018-02-24T11:37:42.538Z,47.68
2018-02-24T11:38:42.548Z,47.39
2018-02-24T11:39:42.840Z,46.73
2018-02-24T11:40:42.857Z,46.16
2018-02-24T11:41:42.928Z,45.87
2018-02-24T11:42:42.595Z,46.45
2018-02-24T11:43:42.890Z,46.16
2018-02-24T11:44:42.900Z,45.87
2018-02-24T11:45:42.920Z,45.02
2018-02-24T11:46:42.639Z,44.73
2018-02-24T11:47:42.933Z,44.45
2018-02-24T11:48:42.945Z,43.31
2018-02-24T11:49:42.670Z,43.31
2018-02-24T11:50:42.968Z,44.17
2018-02-24T11:51:42.980Z,44.93
2018-02-24T11:52:42.712Z,45.12
2018-02-24T11:53:43.000Z,44.93
2018-02-24T11:54:42.730Z,44.83
2018-02-24T11:55:42.741Z,45.12
2018-02-24T11:56:42.753Z,45.31
2018-02-24T11:57:43.045Z,45.42
2018-02-24T11:58:43.063Z,45.14
2018-02-24T11:59:43.067Z,44.76
2018-02-24T12:00:43.076Z,44.95
2018-02-24T12:01:42.808Z,43.71
2018-02-24T12:02:43.107Z,43.9
2018-02-24T12:03:43.110Z,44.19
2018-02-24T12:04:43.126Z,44
2018-02-24T12:05:42.853Z,43.33
2018-02-24T12:06:43.150Z,43.33
2018-02-24T12:07:43.163Z,44
2018-02-24T12:08:43.174Z,44.57
2018-02-24T12:09:43.184Z,44.67
2018-02-24T12:10:43.193Z,44.09
2018-02-24T12:11:43.216Z,43.43
2018-02-24T12:12:43.215Z,42.86
2018-02-24T12:13:43.294Z,42.57
2018-02-24T12:14:43.237Z,43.33
2018-02-24T12:15:43.252Z,42.57
2018-02-24T12:16:43.264Z,42.86
2018-02-24T12:17:43.275Z,42.38
2018-02-24T12:18:43.298Z,42.38
2018-02-24T12:19:43.114Z,41.72
2018-02-24T12:20:43.310Z,41.53
2018-02-24T12:21:43.044Z,41.34
2018-02-24T12:22:43.332Z,41.91
2018-02-24T12:23:43.349Z,41.72
2018-02-24T12:24:43.073Z,41.14
2018-02-24T12:25:43.372Z,41.81
2018-02-24T12:26:43.381Z,42.1
2018-02-24T12:27:43.388Z,42.29
2018-02-24T12:28:43.118Z,42.86
2018-02-24T12:29:43.135Z,43.05
2018-02-24T12:30:43.430Z,42.76
2018-02-24T12:31:43.436Z,43.52
2018-02-24T12:32:43.452Z,43.52
2018-02-24T12:33:43.462Z,44.09
2018-02-24T12:34:43.522Z,44.38
2018-02-24T12:35:43.484Z,44.67
2018-02-24T12:36:43.214Z,45.14
2018-02-24T12:37:43.511Z,44.95
2018-02-24T12:38:43.519Z,44.47
2018-02-24T12:39:43.534Z,44.38
2018-02-24T12:40:43.546Z,44.28
2018-02-24T12:41:43.557Z,44.09
2018-02-24T12:42:43.570Z,43.8
2018-02-24T12:43:43.632Z,43.9
2018-02-24T12:44:43.592Z,43.8
2018-02-24T12:45:43.602Z,43.43
2018-02-24T12:46:43.797Z,44.09
2018-02-24T12:47:43.344Z,44.38
2018-02-24T12:48:43.357Z,44.19
2018-02-24T12:49:44.019Z,44.38
2018-02-24T12:50:43.664Z,44.38
2018-02-24T12:51:43.678Z,44.47
2018-02-24T12:52:43.689Z,43.71
2018-02-24T12:53:43.700Z,43.33
2018-02-24T12:54:43.767Z,42.47
2018-02-24T12:55:43.442Z,41.62